South Effingham, New Hampshire
Current Conditions -  °F | °C
As of 8:54 PM on Monday 20 Oct 2014 (Local Time) from KIZG Reporting Station
Broken Clouds Broken Clouds  
Wind Chill: 37°   Ceiling: 11000
Heat Index: 37°   Visibility: 10mi
Dew Point: 33°   Wind: 0mph
Humidity: 86%   Direction: NA
Pressure: 29.97"   Gusts: NA
Location:  43.7°N, 70.98°W
Report Text: KIZG 210054Z AUTO 00000KT 10SM SCT080 BKN110 03/01 A2997 RMK AO2 SLP154 T00280006
Loading
Personal Weather Stations






























Interactive Weather Map
Tropical Storm Tracking
New forecast layout! Learn more

10-Day Weather Forecast

Advertisements
Track Severe Weather on mobile